createdAt,value
2019-02-07T00:01:01.528Z,71.48
2019-02-07T00:03:08.429Z,71.57
2019-02-07T00:05:12.607Z,71.74
2019-02-07T00:07:18.237Z,71.88
2019-02-07T00:09:22.235Z,72.02
2019-02-07T00:11:31.697Z,72.17
2019-02-07T00:13:35.716Z,72.33
2019-02-07T00:15:39.766Z,72.39
2019-02-07T00:17:43.755Z,72.55
2019-02-07T00:19:47.670Z,72.56
2019-02-07T00:21:52.557Z,72.58
2019-02-07T00:24:02.823Z,72.69
2019-02-07T00:26:09.713Z,72.62
2019-02-07T00:28:18.527Z,72.62
2019-02-07T00:30:29.543Z,72.57
2019-02-07T00:32:34.062Z,72.63
2019-02-07T00:34:38.433Z,72.45
2019-02-07T00:36:42.444Z,72.54
2019-02-07T00:38:47.064Z,72.48
2019-02-07T00:41:01.603Z,72.48
2019-02-07T00:43:05.638Z,72.39
2019-02-07T00:45:11.775Z,72.55
2019-02-07T00:47:15.762Z,72.53
2019-02-07T00:49:19.985Z,72.44
2019-02-07T00:51:23.982Z,72.52
2019-02-07T00:53:27.941Z,72.58
2019-02-07T00:55:36.596Z,72.49
2019-02-07T00:57:41.587Z,72.39
2019-02-07T00:59:45.596Z,72.36
2019-02-07T01:01:50.036Z,72.35
2019-02-07T01:03:53.994Z,72.40
2019-02-07T01:05:58.002Z,72.40
2019-02-07T01:08:03.467Z,72.36
2019-02-07T01:10:09.200Z,72.30
2019-02-07T01:12:13.743Z,72.36
2019-02-07T01:14:17.791Z,72.42
2019-02-07T01:16:21.869Z,72.50
2019-02-07T01:18:25.892Z,72.49
2019-02-07T01:20:31.971Z,72.66
2019-02-07T01:22:35.931Z,72.61
2019-02-07T01:24:40.066Z,72.70
2019-02-07T01:26:44.504Z,72.83
2019-02-07T01:28:48.496Z,72.78
2019-02-07T01:30:52.597Z,72.79
2019-02-07T01:33:00.864Z,72.87
2019-02-07T01:35:05.084Z,72.81
2019-02-07T01:37:09.024Z,72.79
2019-02-07T01:39:12.971Z,72.83
2019-02-07T01:41:16.942Z,72.94
2019-02-07T01:43:21.012Z,72.92
2019-02-07T01:45:25.162Z,72.83
2019-02-07T01:47:30.282Z,72.82
2019-02-07T01:49:35.324Z,72.74
2019-02-07T01:51:39.209Z,72.72
2019-02-07T01:53:46.931Z,72.75
2019-02-07T01:55:51.195Z,72.82
2019-02-07T01:57:56.128Z,72.84
2019-02-07T02:00:00.221Z,72.84
2019-02-07T02:02:04.115Z,72.83
2019-02-07T02:04:08.210Z,72.88
2019-02-07T02:06:12.853Z,72.86
2019-02-07T02:08:16.867Z,72.90
2019-02-07T02:10:25.940Z,72.95
2019-02-07T02:12:29.887Z,72.98
2019-02-07T02:14:33.827Z,73.04
2019-02-07T02:16:37.839Z,73.05
2019-02-07T02:18:41.813Z,73.00
2019-02-07T02:20:45.719Z,72.85
2019-02-07T02:22:51.809Z,72.86
2019-02-07T02:24:55.836Z,72.92
2019-02-07T02:26:59.897Z,72.92
2019-02-07T02:29:04.802Z,72.95
2019-02-07T02:31:08.766Z,73.07
2019-02-07T02:33:12.850Z,72.95
2019-02-07T02:35:16.648Z,73.10
2019-02-07T02:37:20.845Z,73.10
2019-02-07T02:39:24.806Z,73.10
2019-02-07T02:41:28.895Z,73.31
2019-02-07T02:43:32.868Z,73.45
2019-02-07T02:45:37.969Z,73.61
2019-02-07T02:47:42.074Z,73.75
2019-02-07T02:49:49.221Z,73.84
2019-02-07T02:51:54.318Z,73.83
2019-02-07T02:54:00.748Z,73.69
2019-02-07T02:56:06.224Z,73.66
2019-02-07T02:58:11.613Z,73.40
2019-02-07T03:00:18.785Z,73.38
2019-02-07T03:02:37.072Z,73.57
2019-02-07T03:04:54.256Z,73.40
2019-02-07T03:07:35.067Z,73.33
2019-02-07T03:09:56.377Z,73.38
2019-02-07T03:12:20.279Z,73.65
2019-02-07T03:14:41.951Z,73.63
2019-02-07T03:17:03.367Z,73.74
2019-02-07T03:19:18.295Z,73.64
2019-02-07T03:21:39.970Z,73.70
2019-02-07T03:24:18.116Z,73.88
2019-02-07T03:26:33.070Z,74.05
2019-02-07T03:28:50.229Z,74.10
2019-02-07T03:31:11.530Z,74.26
2019-02-07T03:33:26.366Z,74.41
2019-02-07T03:35:52.147Z,74.40
2019-02-07T03:38:13.767Z,74.43
2019-02-07T03:40:45.834Z,74.37
2019-02-07T03:43:07.588Z,74.32
2019-02-07T03:45:36.093Z,74.16
2019-02-07T03:47:57.754Z,74.05
2019-02-07T03:50:25.783Z,74.05
2019-02-07T03:52:51.943Z,74.18
2019-02-07T03:55:15.559Z,74.07
2019-02-07T03:57:47.657Z,74.34
2019-02-07T04:00:16.026Z,74.51
2019-02-07T04:02:48.043Z,74.58
2019-02-07T04:05:14.124Z,74.74
2019-02-07T04:07:27.629Z,74.95
2019-02-07T04:09:59.221Z,74.87
2019-02-07T04:12:22.463Z,74.90
2019-02-07T04:14:44.115Z,74.79
2019-02-07T04:17:06.254Z,74.82
2019-02-07T04:19:26.705Z,74.73
2019-02-07T04:21:58.451Z,74.64
2019-02-07T04:24:39.517Z,74.48
2019-02-07T04:27:05.505Z,74.29
2019-02-07T04:29:37.386Z,74.67
2019-02-07T04:32:00.409Z,74.81
2019-02-07T04:34:37.539Z,75.28
2019-02-07T04:37:09.688Z,74.88
2019-02-07T04:39:25.722Z,75.29
2019-02-07T04:41:47.354Z,75.03
2019-02-07T04:44:19.159Z,75.01
2019-02-07T04:46:40.603Z,75.39
2019-02-07T04:48:57.676Z,75.35
2019-02-07T04:51:19.280Z,75.64
2019-02-07T04:53:35.370Z,75.88
2019-02-07T04:56:00.688Z,75.99
2019-02-07T04:58:22.662Z,75.90
2019-02-07T05:00:58.495Z,75.88
2019-02-07T05:03:20.298Z,75.92
2019-02-07T05:05:47.027Z,76.05
2019-02-07T05:08:18.880Z,76.14
2019-02-07T05:10:40.511Z,76.01
2019-02-07T05:13:02.086Z,75.96
2019-02-07T05:15:30.676Z,76.27
2019-02-07T05:18:00.089Z,76.30
2019-02-07T05:20:26.145Z,76.53
2019-02-07T05:22:41.640Z,76.39
2019-02-07T05:25:12.129Z,76.56
2019-02-07T05:27:37.684Z,76.59
2019-02-07T05:29:59.049Z,76.57
2019-02-07T05:32:13.096Z,76.61
2019-02-07T05:34:37.118Z,76.79
2019-02-07T05:36:53.116Z,76.57
2019-02-07T05:39:21.922Z,76.48
2019-02-07T05:41:40.677Z,76.36
2019-02-07T05:43:54.208Z,76.42
2019-02-07T05:46:08.952Z,76.61
2019-02-07T05:48:45.151Z,77.00
2019-02-07T05:51:09.723Z,76.56
2019-02-07T05:53:31.134Z,76.53
2019-02-07T05:56:12.476Z,76.68
2019-02-07T05:58:24.605Z,76.81
2019-02-07T06:00:47.665Z,76.84
2019-02-07T06:03:16.993Z,76.89
2019-02-07T06:05:38.625Z,76.81
2019-02-07T06:08:00.729Z,76.76
2019-02-07T06:10:43.931Z,76.96
2019-02-07T06:13:24.948Z,78.87
2019-02-07T06:15:47.697Z,78.16
2019-02-07T06:18:22.691Z,75.44
2019-02-07T06:20:48.487Z,74.83
2019-02-07T06:23:14.090Z,74.55
2019-02-07T06:25:35.660Z,74.72
2019-02-07T06:27:51.041Z,74.80
2019-02-07T06:30:08.785Z,75.06
2019-02-07T06:32:21.521Z,75.10
2019-02-07T06:34:42.740Z,75.45
2019-02-07T06:37:04.570Z,76.83
2019-02-07T06:39:28.739Z,77.08
2019-02-07T06:42:03.701Z,76.74
2019-02-07T06:44:28.989Z,76.26
2019-02-07T06:46:52.603Z,75.88
2019-02-07T06:49:15.387Z,75.69
2019-02-07T06:51:39.687Z,75.74
2019-02-07T06:54:01.515Z,75.69
2019-02-07T06:56:23.153Z,75.63
2019-02-07T06:58:44.104Z,75.46
2019-02-07T07:01:13.301Z,75.34
2019-02-07T07:03:28.076Z,75.42
2019-02-07T07:05:51.864Z,75.19
2019-02-07T07:08:17.837Z,75.12
2019-02-07T07:10:43.807Z,74.83
2019-02-07T07:13:15.622Z,74.86
2019-02-07T07:15:47.513Z,74.96
2019-02-07T07:18:16.395Z,74.97
2019-02-07T07:20:59.481Z,74.94
2019-02-07T07:23:16.447Z,74.93
2019-02-07T07:25:38.030Z,74.75
2019-02-07T07:28:03.994Z,74.61
2019-02-07T07:30:33.577Z,74.66
2019-02-07T07:33:11.231Z,74.51
2019-02-07T07:35:40.609Z,74.34
2019-02-07T07:38:02.635Z,74.29
2019-02-07T07:40:28.685Z,74.36
2019-02-07T07:42:50.361Z,74.52
2019-02-07T07:45:15.727Z,74.53
2019-02-07T07:47:36.047Z,74.46
2019-02-07T07:49:53.593Z,74.55
2019-02-07T07:52:21.452Z,74.62
2019-02-07T07:55:00.421Z,74.65
2019-02-07T07:57:26.155Z,74.70
2019-02-07T07:59:49.166Z,74.93
2019-02-07T08:02:12.234Z,74.82
2019-02-07T08:04:35.248Z,74.61
2019-02-07T08:07:02.854Z,74.61
2019-02-07T08:09:26.567Z,74.72
2019-02-07T08:11:49.446Z,74.82
2019-02-07T08:14:10.800Z,74.65
2019-02-07T08:16:35.971Z,74.44
2019-02-07T08:19:04.964Z,74.19
2019-02-07T08:21:33.953Z,74.18
2019-02-07T08:23:56.406Z,74.11
2019-02-07T08:26:17.750Z,73.71
2019-02-07T08:28:42.019Z,73.81
2019-02-07T08:30:55.290Z,73.93
2019-02-07T08:33:19.139Z,73.74
2019-02-07T08:35:41.992Z,73.78
2019-02-07T08:38:11.378Z,73.74
2019-02-07T08:40:32.965Z,73.81
2019-02-07T08:42:58.798Z,73.45
2019-02-07T08:45:27.445Z,73.25
2019-02-07T08:47:58.386Z,73.07
2019-02-07T08:50:16.297Z,72.98
2019-02-07T08:52:39.310Z,72.68
2019-02-07T08:55:02.460Z,72.45
2019-02-07T08:57:26.695Z,72.67
2019-02-07T08:59:54.187Z,72.40
2019-02-07T09:02:17.205Z,72.06
2019-02-07T09:04:34.760Z,71.98
2019-02-07T09:07:12.871Z,71.98
2019-02-07T09:09:34.949Z,72.15
2019-02-07T09:12:12.452Z,71.98
2019-02-07T09:14:33.274Z,71.49
2019-02-07T09:16:55.217Z,71.08
2019-02-07T09:19:20.558Z,71.23
2019-02-07T09:21:35.616Z,71.16
2019-02-07T09:24:10.784Z,70.90
2019-02-07T09:26:39.852Z,70.63
2019-02-07T09:28:55.004Z,70.69
2019-02-07T09:31:17.215Z,70.79
2019-02-07T09:33:38.960Z,70.71
2019-02-07T09:36:05.352Z,70.62
2019-02-07T09:38:40.777Z,70.96
2019-02-07T09:41:03.864Z,70.66
2019-02-07T09:43:25.584Z,70.62
2019-02-07T09:45:49.446Z,70.04
2019-02-07T09:48:21.325Z,70.04
2019-02-07T09:50:34.686Z,69.76
2019-02-07T09:52:50.265Z,69.59
2019-02-07T09:55:27.731Z,69.44
2019-02-07T09:57:42.175Z,69.24
2019-02-07T10:00:12.577Z,69.23
2019-02-07T10:02:22.404Z,68.81
2019-02-07T10:04:43.653Z,68.56
2019-02-07T10:07:01.753Z,68.61
2019-02-07T10:09:36.938Z,68.32
2019-02-07T10:11:58.785Z,68.03
2019-02-07T10:14:34.217Z,67.76
2019-02-07T10:17:06.108Z,67.32
2019-02-07T10:19:34.861Z,67.18
2019-02-07T10:22:03.807Z,67.08
2019-02-07T10:24:25.474Z,66.96
2019-02-07T10:26:47.009Z,67.14
2019-02-07T10:29:08.645Z,67.26
2019-02-07T10:31:30.721Z,67.34
2019-02-07T10:33:52.202Z,67.36
2019-02-07T10:36:24.129Z,67.21
2019-02-07T10:38:45.619Z,67.56
2019-02-07T10:41:11.543Z,67.36
2019-02-07T10:43:44.902Z,67.03
2019-02-07T10:46:12.373Z,66.67
2019-02-07T10:48:44.602Z,66.47
2019-02-07T10:51:07.037Z,66.19
2019-02-07T10:53:32.566Z,66.04
2019-02-07T10:55:56.587Z,65.59
2019-02-07T10:58:22.312Z,65.63
2019-02-07T11:00:45.378Z,65.44
2019-02-07T11:03:26.489Z,65.49
2019-02-07T11:05:39.474Z,65.78
2019-02-07T11:08:02.157Z,65.97
2019-02-07T11:10:27.779Z,65.86
2019-02-07T11:12:49.640Z,65.74
2019-02-07T11:15:21.502Z,65.91
2019-02-07T11:17:53.820Z,65.99
2019-02-07T11:20:22.927Z,65.65
2019-02-07T11:22:36.361Z,65.36
2019-02-07T11:24:57.807Z,65.63
2019-02-07T11:27:26.737Z,65.57
2019-02-07T11:29:48.998Z,65.33
2019-02-07T11:32:18.238Z,65.39
2019-02-07T11:34:41.116Z,65.23
2019-02-07T11:37:03.182Z,65.24
2019-02-07T11:39:40.699Z,65.37
2019-02-07T11:42:09.581Z,65.47
2019-02-07T11:44:20.695Z,65.82
2019-02-07T11:46:43.823Z,65.74
2019-02-07T11:49:09.838Z,66.08
2019-02-07T11:51:32.161Z,66.59
2019-02-07T11:54:07.556Z,66.88
2019-02-07T11:56:37.878Z,66.95
2019-02-07T11:59:18.803Z,67.00
2019-02-07T12:01:35.051Z,67.12
2019-02-07T12:04:05.150Z,67.45
2019-02-07T12:06:26.568Z,67.67
2019-02-07T12:08:42.815Z,68.22
2019-02-07T12:11:04.467Z,68.50
2019-02-07T12:13:18.286Z,68.96
2019-02-07T12:15:33.738Z,68.94
2019-02-07T12:18:10.173Z,69.35
2019-02-07T12:20:51.317Z,69.54
2019-02-07T12:23:12.568Z,69.52
2019-02-07T12:25:28.346Z,69.63
2019-02-07T12:27:51.334Z,69.54
2019-02-07T12:30:17.377Z,69.31
2019-02-07T12:32:38.710Z,69.18
2019-02-07T12:34:51.740Z,68.79
2019-02-07T12:37:23.970Z,68.75
2019-02-07T12:39:49.967Z,68.93
2019-02-07T12:42:05.513Z,69.25
2019-02-07T12:44:29.725Z,69.29
2019-02-07T12:47:11.186Z,69.43
2019-02-07T12:49:33.503Z,69.21
2019-02-07T12:52:05.262Z,68.65
2019-02-07T12:54:40.210Z,68.82
2019-02-07T12:57:00.964Z,69.22
2019-02-07T12:59:33.038Z,69.34
2019-02-07T13:01:59.036Z,69.39
2019-02-07T13:04:17.747Z,69.24
2019-02-07T13:06:38.564Z,69.78
2019-02-07T13:08:56.243Z,70.12
2019-02-07T13:11:25.248Z,70.32
2019-02-07T13:13:48.832Z,70.50
2019-02-07T13:16:22.090Z,71.00
2019-02-07T13:18:42.275Z,70.95
2019-02-07T13:21:03.627Z,71.23
2019-02-07T13:23:26.592Z,71.33
2019-02-07T13:25:48.512Z,71.51
2019-02-07T13:28:10.042Z,71.43
2019-02-07T13:30:40.041Z,71.79
2019-02-07T13:32:50.769Z,72.01
2019-02-07T13:35:19.966Z,72.46
2019-02-07T13:37:45.693Z,72.67
2019-02-07T13:40:07.372Z,73.13
2019-02-07T13:42:19.312Z,73.28
2019-02-07T13:44:40.852Z,73.28
2019-02-07T13:47:12.649Z,73.42
2019-02-07T13:49:51.679Z,73.85
2019-02-07T13:52:08.070Z,74.07
2019-02-07T13:54:35.960Z,74.16
2019-02-07T13:57:07.778Z,74.46
2019-02-07T13:59:46.072Z,74.63
2019-02-07T14:02:13.636Z,74.92
2019-02-07T14:04:43.688Z,74.88
2019-02-07T14:07:05.811Z,75.20
2019-02-07T14:09:27.403Z,75.12
2019-02-07T14:11:57.779Z,75.29
2019-02-07T14:14:12.223Z,75.36
2019-02-07T14:16:35.120Z,75.66
2019-02-07T14:19:07.456Z,75.55
2019-02-07T14:21:20.745Z,75.95
2019-02-07T14:23:49.331Z,76.13
2019-02-07T14:26:07.967Z,76.13
2019-02-07T14:28:38.702Z,76.31
2019-02-07T14:31:06.281Z,76.46
2019-02-07T14:33:28.180Z,76.70
2019-02-07T14:35:42.269Z,76.69
2019-02-07T14:38:03.969Z,76.77
2019-02-07T14:40:29.372Z,76.94
2019-02-07T14:42:58.476Z,77.06
2019-02-07T14:45:20.462Z,77.25
2019-02-07T14:47:26.717Z,77.10
2019-02-07T14:49:33.036Z,77.21
2019-02-07T14:51:36.993Z,77.31
2019-02-07T14:53:42.219Z,77.21
2019-02-07T14:55:46.295Z,77.25
2019-02-07T14:57:50.592Z,77.32
2019-02-07T14:59:59.421Z,77.17
2019-02-07T15:02:03.547Z,77.22
2019-02-07T15:04:10.290Z,77.49
2019-02-07T15:06:14.277Z,77.41
2019-02-07T15:08:18.313Z,77.50
2019-02-07T15:10:22.256Z,77.46
2019-02-07T15:12:26.359Z,77.42
2019-02-07T15:14:30.644Z,77.38
2019-02-07T15:16:34.758Z,77.57
2019-02-07T15:18:38.862Z,77.55
2019-02-07T15:20:43.009Z,77.76
2019-02-07T15:22:48.081Z,77.79
2019-02-07T15:24:52.199Z,77.72
2019-02-07T15:26:56.010Z,77.75
2019-02-07T15:29:00.008Z,77.78
2019-02-07T15:31:05.670Z,77.73
2019-02-07T15:33:10.083Z,77.78
2019-02-07T15:35:17.949Z,77.75
2019-02-07T15:37:23.992Z,77.55
2019-02-07T15:39:28.107Z,77.78
2019-02-07T15:41:32.082Z,77.77
2019-02-07T15:43:36.076Z,77.90
2019-02-07T15:45:40.828Z,77.94
2019-02-07T15:47:44.879Z,77.83
2019-02-07T15:49:49.004Z,77.90
2019-02-07T15:51:52.904Z,77.91
2019-02-07T15:53:57.012Z,77.97
2019-02-07T15:56:01.500Z,77.89
2019-02-07T15:58:05.613Z,78.11
2019-02-07T16:00:29.763Z,78.13
2019-02-07T16:02:40.401Z,78.21
2019-02-07T16:04:46.171Z,78.20
2019-02-07T16:06:50.171Z,77.94
2019-02-07T16:08:54.279Z,78.02
2019-02-07T16:10:59.388Z,78.05
2019-02-07T16:13:03.463Z,78.09
2019-02-07T16:15:11.020Z,78.05
2019-02-07T16:17:15.437Z,77.99
2019-02-07T16:19:19.607Z,78.32
2019-02-07T16:21:23.627Z,78.22
2019-02-07T16:23:31.003Z,78.23
2019-02-07T16:25:35.022Z,78.29
2019-02-07T16:27:39.049Z,78.40
2019-02-07T16:29:43.143Z,78.50
2019-02-07T16:31:47.160Z,78.59
2019-02-07T16:33:51.356Z,78.64
2019-02-07T16:35:55.497Z,78.60
2019-02-07T16:37:59.684Z,78.65
2019-02-07T16:40:05.904Z,78.60
2019-02-07T16:42:10.038Z,78.75
2019-02-07T16:44:14.147Z,78.88
2019-02-07T16:46:18.150Z,78.92
2019-02-07T16:48:22.196Z,79.01
2019-02-07T16:50:26.315Z,78.95
2019-02-07T16:52:30.572Z,79.03
2019-02-07T16:54:34.570Z,79.19
2019-02-07T16:56:39.601Z,79.37
2019-02-07T16:58:43.787Z,79.45
2019-02-07T17:00:48.808Z,79.51
2019-02-07T17:02:53.080Z,79.55
2019-02-07T17:04:57.791Z,79.62
2019-02-07T17:07:02.111Z,79.69
2019-02-07T17:09:16.136Z,79.62
2019-02-07T17:11:20.215Z,79.53
2019-02-07T17:13:24.251Z,79.68
2019-02-07T17:15:28.404Z,79.70
2019-02-07T17:17:32.653Z,79.64
2019-02-07T17:19:36.710Z,79.81
2019-02-07T17:21:40.702Z,79.71
2019-02-07T17:23:45.280Z,79.92
2019-02-07T17:25:49.552Z,79.82
2019-02-07T17:27:56.416Z,79.77
2019-02-07T17:30:00.414Z,79.69
2019-02-07T17:32:04.894Z,79.78
2019-02-07T17:34:09.127Z,79.79
2019-02-07T17:36:13.228Z,79.70
2019-02-07T17:38:17.495Z,79.57
2019-02-07T17:40:21.919Z,79.57
2019-02-07T17:42:27.111Z,79.47
2019-02-07T17:44:31.625Z,79.48
2019-02-07T17:46:35.820Z,79.32
2019-02-07T17:48:40.043Z,79.18
2019-02-07T17:50:44.409Z,79.12
2019-02-07T17:52:50.427Z,79.27
2019-02-07T17:54:54.643Z,79.19
2019-02-07T17:56:58.801Z,79.16
2019-02-07T17:59:03.171Z,79.15
2019-02-07T18:01:09.733Z,79.17
2019-02-07T18:03:13.877Z,79.23
2019-02-07T18:05:17.974Z,79.17
2019-02-07T18:07:22.217Z,79.26
2019-02-07T18:09:26.586Z,79.32
2019-02-07T18:11:31.453Z,79.41
2019-02-07T18:13:35.600Z,79.42
2019-02-07T18:15:39.881Z,79.40
2019-02-07T18:17:44.143Z,79.40
2019-02-07T18:19:48.505Z,79.48
2019-02-07T18:21:53.879Z,79.43
2019-02-07T18:23:58.165Z,79.51
2019-02-07T18:26:02.228Z,79.38
2019-02-07T18:28:06.326Z,79.36
2019-02-07T18:30:17.876Z,79.30
2019-02-07T18:32:21.986Z,79.45
2019-02-07T18:34:26.393Z,79.45
2019-02-07T18:36:33.441Z,79.31
2019-02-07T18:38:37.500Z,79.39
2019-02-07T18:40:41.584Z,79.32
2019-02-07T18:42:45.629Z,79.23
2019-02-07T18:44:49.803Z,79.14
2019-02-07T18:46:53.921Z,79.08
2019-02-07T18:48:59.100Z,78.95
2019-02-07T18:51:03.237Z,79.00
2019-02-07T18:53:08.409Z,78.91
2019-02-07T18:55:12.871Z,78.82
2019-02-07T18:57:16.972Z,78.81
2019-02-07T18:59:21.280Z,78.71
2019-02-07T19:01:25.394Z,78.56
2019-02-07T19:03:29.527Z,78.42
2019-02-07T19:05:36.997Z,78.39
2019-02-07T19:07:41.321Z,78.34
2019-02-07T19:09:46.373Z,78.30
2019-02-07T19:11:54.120Z,78.30
2019-02-07T19:14:00.882Z,78.36
2019-02-07T19:16:14.907Z,78.34
2019-02-07T19:18:19.570Z,78.41
2019-02-07T19:20:24.060Z,78.45
2019-02-07T19:22:28.690Z,78.44
2019-02-07T19:24:33.115Z,78.45
2019-02-07T19:26:38.843Z,78.44
2019-02-07T19:28:43.619Z,78.49
2019-02-07T19:30:47.813Z,78.48
2019-02-07T19:32:51.952Z,78.46
2019-02-07T19:35:06.367Z,78.55
2019-02-07T19:37:10.513Z,78.47
2019-02-07T19:39:14.678Z,78.42
2019-02-07T19:41:18.740Z,78.34
2019-02-07T19:43:22.854Z,78.39
2019-02-07T19:45:26.850Z,78.36
2019-02-07T19:47:30.915Z,78.29
2019-02-07T19:49:35.387Z,78.25
2019-02-07T19:51:39.545Z,78.24
2019-02-07T19:53:43.593Z,78.25
2019-02-07T19:55:47.824Z,78.32
2019-02-07T19:57:52.768Z,78.38
2019-02-07T19:59:57.053Z,78.56
2019-02-07T20:02:01.274Z,78.75
2019-02-07T20:04:05.390Z,78.84
2019-02-07T20:06:09.726Z,78.91
2019-02-07T20:08:14.053Z,79.08
2019-02-07T20:10:19.780Z,79.20
2019-02-07T20:12:23.840Z,79.15
2019-02-07T20:14:27.859Z,79.16
2019-02-07T20:16:31.787Z,79.11
2019-02-07T20:18:36.028Z,79.20
2019-02-07T20:20:40.291Z,79.26
2019-02-07T20:22:44.475Z,79.35
2019-02-07T20:24:48.535Z,79.39
2019-02-07T20:26:55.549Z,79.27
2019-02-07T20:28:59.562Z,79.34
2019-02-07T20:31:04.138Z,79.31
2019-02-07T20:33:12.454Z,79.41
2019-02-07T20:35:16.851Z,79.40
2019-02-07T20:37:21.640Z,79.42
2019-02-07T20:39:27.100Z,79.35
2019-02-07T20:41:32.015Z,79.43
2019-02-07T20:43:36.661Z,79.45
2019-02-07T20:45:40.712Z,79.53
2019-02-07T20:47:45.045Z,79.46
2019-02-07T20:49:49.208Z,79.50
2019-02-07T20:51:53.457Z,79.60
2019-02-07T20:53:57.634Z,79.91
2019-02-07T20:56:01.752Z,79.90
2019-02-07T20:58:05.865Z,80.02
2019-02-07T21:00:17.338Z,80.23
2019-02-07T21:02:21.675Z,80.44
2019-02-07T21:04:26.135Z,80.58
2019-02-07T21:06:30.345Z,80.59
2019-02-07T21:08:34.513Z,80.60
2019-02-07T21:10:38.784Z,80.69
2019-02-07T21:12:43.157Z,80.85
2019-02-07T21:14:47.498Z,80.73
2019-02-07T21:16:51.902Z,80.67
2019-02-07T21:18:56.351Z,80.55
2019-02-07T21:21:18.876Z,80.45
2019-02-07T21:23:29.921Z,80.38
2019-02-07T21:25:43.386Z,80.34
2019-02-07T21:27:48.047Z,80.22
2019-02-07T21:29:52.323Z,80.12
2019-02-07T21:31:56.948Z,80.05
2019-02-07T21:34:01.227Z,80.00
2019-02-07T21:36:06.301Z,79.95
2019-02-07T21:38:10.759Z,79.90
2019-02-07T21:40:21.227Z,79.88
2019-02-07T21:42:25.565Z,79.81
2019-02-07T21:44:29.790Z,79.82
2019-02-07T21:46:33.912Z,79.76
2019-02-07T21:48:38.383Z,79.75
2019-02-07T21:50:45.273Z,79.82
2019-02-07T21:52:51.676Z,79.80
2019-02-07T21:54:55.769Z,79.82
2019-02-07T21:56:59.874Z,79.90
2019-02-07T21:59:04.076Z,79.94
2019-02-07T22:01:08.176Z,80.12
2019-02-07T22:03:13.642Z,80.23
2019-02-07T22:05:17.715Z,80.27
2019-02-07T22:07:21.778Z,80.38
2019-02-07T22:09:26.044Z,80.21
2019-02-07T22:11:30.231Z,80.28
2019-02-07T22:13:34.722Z,80.29
2019-02-07T22:15:38.674Z,80.40
2019-02-07T22:17:42.737Z,80.50
2019-02-07T22:19:46.823Z,80.44
2019-02-07T22:21:51.046Z,80.42
2019-02-07T22:23:55.446Z,80.47
2019-02-07T22:25:59.458Z,80.40
2019-02-07T22:28:06.059Z,80.38
2019-02-07T22:30:13.587Z,80.40
2019-02-07T22:32:18.071Z,80.42
2019-02-07T22:34:22.150Z,80.52
2019-02-07T22:36:27.256Z,80.69
2019-02-07T22:38:31.844Z,80.65
2019-02-07T22:40:35.831Z,80.82
2019-02-07T22:42:47.542Z,80.79
2019-02-07T22:44:48.570Z,80.88
2019-02-07T22:46:52.697Z,81.00
2019-02-07T22:48:57.085Z,80.98
2019-02-07T22:51:01.221Z,81.02
2019-02-07T22:53:05.552Z,81.07
2019-02-07T22:55:09.746Z,81.16
2019-02-07T22:57:14.852Z,81.19
2019-02-07T22:59:18.896Z,81.23
2019-02-07T23:01:37.326Z,81.40
2019-02-07T23:03:43.609Z,81.66
2019-02-07T23:05:48.907Z,81.63
2019-02-07T23:07:53.292Z,81.81
2019-02-07T23:09:57.633Z,82.00
2019-02-07T23:12:01.809Z,81.98
2019-02-07T23:14:08.053Z,81.99
2019-02-07T23:16:12.048Z,82.28
2019-02-07T23:18:19.357Z,82.33
2019-02-07T23:20:23.415Z,82.27
2019-02-07T23:22:29.055Z,82.34
2019-02-07T23:24:33.135Z,82.40
2019-02-07T23:26:37.451Z,82.37
2019-02-07T23:28:42.018Z,82.25
2019-02-07T23:30:48.971Z,82.35
2019-02-07T23:32:52.946Z,82.37
2019-02-07T23:34:57.601Z,82.35
2019-02-07T23:37:01.754Z,82.21
2019-02-07T23:39:11.805Z,82.14
2019-02-07T23:41:16.258Z,82.32
2019-02-07T23:43:20.228Z,82.34
2019-02-07T23:45:24.629Z,82.16
2019-02-07T23:47:28.662Z,82.06
2019-02-07T23:49:33.169Z,81.89
2019-02-07T23:51:37.133Z,81.83
2019-02-07T23:53:41.165Z,81.76
2019-02-07T23:55:45.250Z,81.67
2019-02-07T23:57:49.348Z,81.47
2019-02-07T23:59:53.543Z,81.43
